createdAt,value
2022-11-04T00:00:09.082Z,13.96
2022-11-04T00:01:09.067Z,13.96
2022-11-04T00:02:09.013Z,13.95
2022-11-04T00:03:09.238Z,13.96
2022-11-04T00:04:08.961Z,13.96
2022-11-04T00:05:08.944Z,13.96
2022-11-04T00:06:08.943Z,13.90
2022-11-04T00:07:08.944Z,13.87
2022-11-04T00:08:08.914Z,13.92
2022-11-04T00:09:08.895Z,13.92
2022-11-04T00:10:08.883Z,13.96
2022-11-04T00:11:08.873Z,13.99
2022-11-04T00:12:08.876Z,13.99
2022-11-04T00:13:09.092Z,14.00
2022-11-04T00:14:08.843Z,13.92
2022-11-04T00:15:08.823Z,13.86
2022-11-04T00:16:08.824Z,13.86
2022-11-04T00:17:08.804Z,13.93
2022-11-04T00:18:08.813Z,13.90
2022-11-04T00:19:08.812Z,13.95
2022-11-04T00:20:08.836Z,13.92
2022-11-04T00:21:08.784Z,13.95
2022-11-04T00:22:08.764Z,13.92
2022-11-04T00:23:09.167Z,13.95
2022-11-04T00:24:08.753Z,13.95
2022-11-04T00:25:08.735Z,13.89
2022-11-04T00:26:08.705Z,13.81
2022-11-04T00:27:08.693Z,13.85
2022-11-04T00:28:09.073Z,13.79
2022-11-04T00:29:08.682Z,13.75
2022-11-04T00:30:08.683Z,13.74
2022-11-04T00:31:08.648Z,13.86
2022-11-04T00:32:08.643Z,13.81
2022-11-04T00:33:08.629Z,13.87
2022-11-04T00:34:08.614Z,13.86
2022-11-04T00:35:08.644Z,13.87
2022-11-04T00:36:08.595Z,13.83
2022-11-04T00:37:08.579Z,13.78
2022-11-04T00:38:08.799Z,13.83
2022-11-04T00:39:08.555Z,13.81
2022-11-04T00:40:08.544Z,13.77
2022-11-04T00:41:08.554Z,13.77
2022-11-04T00:42:08.522Z,13.81
2022-11-04T00:43:08.507Z,13.89
2022-11-04T00:44:08.502Z,13.89
2022-11-04T00:45:08.486Z,13.71
2022-11-04T00:46:08.475Z,13.75
2022-11-04T00:47:08.483Z,13.83
2022-11-04T00:48:08.709Z,13.86
2022-11-04T00:49:08.446Z,13.86
2022-11-04T00:50:08.425Z,13.77
2022-11-04T00:51:08.451Z,13.74
2022-11-04T00:52:08.419Z,13.72
2022-11-04T00:53:08.587Z,13.71
2022-11-04T00:54:08.397Z,13.75
2022-11-04T00:55:08.376Z,13.81
2022-11-04T00:56:08.364Z,13.71
2022-11-04T00:57:08.354Z,13.67
2022-11-04T00:58:08.344Z,13.70
2022-11-04T00:59:11.781Z,13.79
2022-11-04T01:00:09.315Z,13.79
2022-11-04T01:01:08.342Z,13.75
2022-11-04T01:02:08.441Z,13.77
2022-11-04T01:03:08.505Z,13.70
2022-11-04T01:04:08.277Z,13.70
2022-11-04T01:05:08.276Z,13.70
2022-11-04T01:06:08.246Z,13.70
2022-11-04T01:07:08.239Z,13.68
2022-11-04T01:08:08.225Z,13.70
2022-11-04T01:09:08.217Z,13.56
2022-11-04T01:10:08.216Z,13.60
2022-11-04T01:11:08.186Z,13.68
2022-11-04T01:12:08.176Z,13.75
2022-11-04T01:13:08.448Z,13.85
2022-11-04T01:14:08.155Z,13.65
2022-11-04T01:15:08.155Z,13.67
2022-11-04T01:16:08.146Z,13.74
2022-11-04T01:17:08.125Z,13.79
2022-11-04T01:18:08.283Z,13.87
2022-11-04T01:19:08.104Z,13.87
2022-11-04T01:20:08.083Z,13.83
2022-11-04T01:21:08.107Z,13.79
2022-11-04T01:22:08.055Z,13.77
2022-11-04T01:23:08.054Z,13.79
2022-11-04T01:24:08.046Z,13.70
2022-11-04T01:25:08.024Z,13.62
2022-11-04T01:26:08.015Z,13.67
2022-11-04T01:27:08.038Z,13.68
2022-11-04T01:28:08.245Z,13.63
2022-11-04T01:29:07.985Z,13.60
2022-11-04T01:30:07.965Z,13.59
2022-11-04T01:31:07.970Z,13.62
2022-11-04T01:32:07.955Z,13.65
2022-11-04T01:33:07.973Z,13.68
2022-11-04T01:34:07.925Z,13.75
2022-11-04T01:35:07.915Z,13.77
2022-11-04T01:36:07.905Z,13.75
2022-11-04T01:37:07.898Z,13.67
2022-11-04T01:38:08.142Z,13.68
2022-11-04T01:39:07.917Z,13.70
2022-11-04T01:40:07.855Z,13.70
2022-11-04T01:41:07.847Z,13.75
2022-11-04T01:42:07.839Z,13.78
2022-11-04T01:43:08.109Z,13.65
2022-11-04T01:44:07.813Z,13.59
2022-11-04T01:45:07.818Z,13.56
2022-11-04T01:46:07.785Z,13.49
2022-11-04T01:47:07.781Z,13.47
2022-11-04T01:48:07.766Z,13.50
2022-11-04T01:49:07.755Z,13.56
2022-11-04T01:50:07.768Z,13.59
2022-11-04T01:51:07.735Z,13.63
2022-11-04T01:52:07.730Z,13.60
2022-11-04T01:53:07.987Z,13.47
2022-11-04T01:54:07.695Z,13.42
2022-11-04T01:55:07.686Z,13.49
2022-11-04T01:56:07.686Z,13.52
2022-11-04T01:57:08.767Z,13.56
2022-11-04T01:58:07.646Z,13.56
2022-11-04T01:59:07.648Z,13.56
2022-11-04T02:00:07.625Z,13.56
2022-11-04T02:01:07.688Z,13.49
2022-11-04T02:02:07.688Z,13.49
2022-11-04T02:03:08.017Z,13.50
2022-11-04T02:04:07.586Z,13.59
2022-11-04T02:05:07.624Z,13.52
2022-11-04T02:06:07.562Z,13.56
2022-11-04T02:07:07.577Z,13.52
2022-11-04T02:08:07.533Z,13.49
2022-11-04T02:09:07.526Z,13.46
2022-11-04T02:10:07.513Z,13.47
2022-11-04T02:11:07.506Z,13.54
2022-11-04T02:12:07.488Z,13.57
2022-11-04T02:13:07.637Z,13.49
2022-11-04T02:14:07.465Z,13.54
2022-11-04T02:15:07.466Z,13.70
2022-11-04T02:16:07.445Z,13.65
2022-11-04T02:17:07.435Z,13.63
2022-11-04T02:18:07.437Z,13.59
2022-11-04T02:19:07.415Z,13.53
2022-11-04T02:20:07.399Z,13.41
2022-11-04T02:21:07.386Z,13.38
2022-11-04T02:22:07.376Z,13.46
2022-11-04T02:23:07.641Z,13.46
2022-11-04T02:24:07.384Z,13.50
2022-11-04T02:25:07.346Z,13.52
2022-11-04T02:26:07.345Z,13.57
2022-11-04T02:27:07.316Z,13.56
2022-11-04T02:28:07.309Z,13.52
2022-11-04T02:29:07.296Z,13.54
2022-11-04T02:30:07.307Z,13.50
2022-11-04T02:31:07.278Z,13.42
2022-11-04T02:32:07.256Z,13.44
2022-11-04T02:33:07.441Z,13.35
2022-11-04T02:34:07.236Z,13.30
2022-11-04T02:35:07.226Z,13.16
2022-11-04T02:36:07.348Z,13.11
2022-11-04T02:37:07.206Z,13.15
2022-11-04T02:38:07.196Z,13.15
2022-11-04T02:39:07.189Z,13.08
2022-11-04T02:40:07.169Z,13.12
2022-11-04T02:41:07.188Z,13.13
2022-11-04T02:42:07.149Z,13.11
2022-11-04T02:43:07.624Z,13.12
2022-11-04T02:44:07.126Z,13.18
2022-11-04T02:45:07.116Z,13.16
2022-11-04T02:46:07.096Z,13.16
2022-11-04T02:47:07.129Z,13.20
2022-11-04T02:48:07.078Z,13.19
2022-11-04T02:49:07.067Z,13.09
2022-11-04T02:50:07.059Z,13.15
2022-11-04T02:51:07.047Z,13.22
2022-11-04T02:52:07.037Z,13.23
2022-11-04T02:53:07.353Z,13.20
2022-11-04T02:54:07.007Z,13.15
2022-11-04T02:55:06.997Z,13.01
2022-11-04T02:56:06.989Z,13.08
2022-11-04T02:57:06.976Z,13.15
2022-11-04T02:58:06.965Z,13.13
2022-11-04T02:59:06.976Z,13.15
2022-11-04T03:00:06.937Z,13.09
2022-11-04T03:01:07.003Z,13.03
2022-11-04T03:02:06.997Z,13.03
2022-11-04T03:03:07.266Z,12.93
2022-11-04T03:04:06.888Z,12.83
2022-11-04T03:05:06.896Z,12.79
2022-11-04T03:06:06.867Z,12.78
2022-11-04T03:07:06.913Z,12.72
2022-11-04T03:08:07.094Z,12.64
2022-11-04T03:09:06.836Z,12.62
2022-11-04T03:10:06.849Z,12.61
2022-11-04T03:11:06.816Z,12.62
2022-11-04T03:12:06.797Z,12.57
2022-11-04T03:13:06.787Z,12.57
2022-11-04T03:14:06.777Z,12.55
2022-11-04T03:15:06.767Z,12.54
2022-11-04T03:16:06.779Z,12.57
2022-11-04T03:17:06.747Z,12.55
2022-11-04T03:18:06.967Z,12.50
2022-11-04T03:19:06.729Z,12.43
2022-11-04T03:20:06.707Z,12.39
2022-11-04T03:21:06.697Z,12.36
2022-11-04T03:22:06.712Z,12.36
2022-11-04T03:23:06.675Z,12.36
2022-11-04T03:24:06.658Z,12.37
2022-11-04T03:25:06.656Z,12.32
2022-11-04T03:26:06.637Z,12.31
2022-11-04T03:27:06.627Z,12.28
2022-11-04T03:28:07.103Z,12.24
2022-11-04T03:29:06.607Z,12.22
2022-11-04T03:30:06.712Z,12.20
2022-11-04T03:31:06.586Z,12.21
2022-11-04T03:32:06.568Z,12.21
2022-11-04T03:33:06.861Z,12.17
2022-11-04T03:34:06.577Z,12.17
2022-11-04T03:35:06.536Z,12.06
2022-11-04T03:36:06.527Z,11.97
2022-11-04T03:37:06.520Z,12.02
2022-11-04T03:38:06.501Z,12.04
2022-11-04T03:39:06.496Z,12.04
2022-11-04T03:40:06.506Z,12.02
2022-11-04T03:41:06.466Z,11.87
2022-11-04T03:42:06.456Z,11.87
2022-11-04T03:43:06.686Z,11.95
2022-11-04T03:44:06.436Z,12.00
2022-11-04T03:45:06.427Z,12.04
2022-11-04T03:46:06.438Z,11.94
2022-11-04T03:47:06.407Z,11.90
2022-11-04T03:48:06.388Z,11.91
2022-11-04T03:49:06.388Z,11.86
2022-11-04T03:50:06.365Z,11.91
2022-11-04T03:51:06.356Z,11.91
2022-11-04T03:52:06.367Z,11.95
2022-11-04T03:53:06.653Z,11.95
2022-11-04T03:54:06.319Z,12.10
2022-11-04T03:55:06.307Z,12.15
2022-11-04T03:56:06.300Z,12.22
2022-11-04T03:57:06.287Z,12.25
2022-11-04T03:58:06.397Z,12.17
2022-11-04T03:59:06.268Z,12.20
2022-11-04T04:00:06.246Z,12.24
2022-11-04T04:01:06.306Z,12.27
2022-11-04T04:02:06.340Z,12.25
2022-11-04T04:03:06.217Z,12.27
2022-11-04T04:04:06.219Z,12.24
2022-11-04T04:05:06.201Z,12.21
2022-11-04T04:06:06.177Z,12.18
2022-11-04T04:07:06.167Z,12.10
2022-11-04T04:08:06.521Z,12.06
2022-11-04T04:09:06.166Z,12.03
2022-11-04T04:10:06.146Z,11.91
2022-11-04T04:11:06.126Z,11.81
2022-11-04T04:12:06.107Z,11.73
2022-11-04T04:13:06.106Z,11.70
2022-11-04T04:14:06.086Z,11.77
2022-11-04T04:15:06.099Z,11.80
2022-11-04T04:16:06.068Z,11.84
2022-11-04T04:17:06.103Z,11.86
2022-11-04T04:18:06.233Z,11.87
2022-11-04T04:19:06.036Z,11.87
2022-11-04T04:20:06.038Z,11.78
2022-11-04T04:21:06.006Z,11.77
2022-11-04T04:22:05.997Z,11.72
2022-11-04T04:23:05.986Z,11.75
2022-11-04T04:24:05.980Z,11.78
2022-11-04T04:25:05.966Z,11.73
2022-11-04T04:26:05.986Z,11.78
2022-11-04T04:27:05.945Z,11.83
2022-11-04T04:28:06.086Z,11.86
2022-11-04T04:29:05.916Z,11.84
2022-11-04T04:30:05.905Z,11.81
2022-11-04T04:31:05.897Z,11.83
2022-11-04T04:32:05.914Z,11.83
2022-11-04T04:33:05.879Z,11.83
2022-11-04T04:34:05.989Z,11.80
2022-11-04T04:35:05.916Z,11.72
2022-11-04T04:36:05.835Z,11.68
2022-11-04T04:37:05.826Z,11.66
2022-11-04T04:38:06.164Z,11.69
2022-11-04T04:39:05.807Z,11.70
2022-11-04T04:40:05.795Z,11.72
2022-11-04T04:41:05.790Z,11.69
2022-11-04T04:42:05.767Z,11.66
2022-11-04T04:43:05.989Z,11.66
2022-11-04T04:44:05.766Z,11.59
2022-11-04T04:45:05.736Z,11.52
2022-11-04T04:46:05.725Z,11.41
2022-11-04T04:47:05.716Z,11.35
2022-11-04T04:48:05.696Z,11.35
2022-11-04T04:49:05.694Z,11.27
2022-11-04T04:50:05.687Z,11.27
2022-11-04T04:51:05.666Z,11.27
2022-11-04T04:52:05.658Z,11.26
2022-11-04T04:53:05.935Z,11.25
2022-11-04T04:54:05.627Z,11.23
2022-11-04T04:55:05.646Z,11.19
2022-11-04T04:56:05.606Z,11.14
2022-11-04T04:57:05.607Z,11.10
2022-11-04T04:58:05.597Z,11.10
2022-11-04T04:59:05.575Z,11.05
2022-11-04T05:00:05.566Z,10.99
2022-11-04T05:01:05.638Z,11.00
2022-11-04T05:02:05.674Z,11.00
2022-11-04T05:03:05.696Z,11.02
2022-11-04T05:04:05.516Z,10.99
2022-11-04T05:05:05.543Z,10.93
2022-11-04T05:06:05.502Z,10.89
2022-11-04T05:07:05.506Z,10.79
2022-11-04T05:08:05.712Z,10.74
2022-11-04T05:09:05.457Z,10.71
2022-11-04T05:10:05.456Z,10.72
2022-11-04T05:11:05.437Z,10.72
2022-11-04T05:12:05.454Z,10.74
2022-11-04T05:13:05.415Z,10.75
2022-11-04T05:14:05.408Z,10.71
2022-11-04T05:15:05.395Z,10.71
2022-11-04T05:16:05.389Z,10.79
2022-11-04T05:17:05.366Z,10.78
2022-11-04T05:18:05.509Z,10.87
2022-11-04T05:19:05.348Z,10.82
2022-11-04T05:20:05.336Z,10.79
2022-11-04T05:21:05.329Z,10.82
2022-11-04T05:22:05.316Z,10.79
2022-11-04T05:23:05.305Z,10.78
2022-11-04T05:24:05.315Z,10.82
2022-11-04T05:25:05.282Z,10.86
2022-11-04T05:26:05.276Z,10.79
2022-11-04T05:27:05.258Z,10.82
2022-11-04T05:28:05.432Z,10.84
2022-11-04T05:29:05.322Z,10.92
2022-11-04T05:30:05.235Z,10.82
2022-11-04T05:31:05.229Z,10.89
2022-11-04T05:32:05.206Z,11.00
2022-11-04T05:33:05.513Z,11.05
2022-11-04T05:34:05.186Z,11.00
2022-11-04T05:35:05.206Z,11.02
2022-11-04T05:36:05.156Z,11.10
2022-11-04T05:37:05.145Z,11.11
2022-11-04T05:38:05.135Z,11.12
2022-11-04T05:39:05.126Z,11.15
2022-11-04T05:40:05.115Z,11.12
2022-11-04T05:41:05.115Z,11.11
2022-11-04T05:42:05.136Z,11.11
2022-11-04T05:43:05.089Z,11.05
2022-11-04T05:44:05.082Z,11.02
2022-11-04T05:45:05.055Z,11.00
2022-11-04T05:46:05.065Z,11.00
2022-11-04T05:47:05.035Z,10.97
2022-11-04T05:48:05.028Z,10.96
2022-11-04T05:49:05.018Z,10.93
2022-11-04T05:50:05.007Z,10.93
2022-11-04T05:51:04.985Z,10.96
2022-11-04T05:52:12.076Z,10.97
2022-11-04T05:53:04.967Z,10.96
2022-11-04T05:54:04.956Z,10.94
2022-11-04T05:55:04.949Z,10.87
2022-11-04T05:56:04.936Z,10.89
2022-11-04T05:57:04.926Z,10.90
2022-11-04T05:58:04.936Z,10.86
2022-11-04T05:59:04.896Z,10.84
2022-11-04T06:00:04.889Z,10.82
2022-11-04T06:01:04.876Z,10.82
2022-11-04T06:02:04.977Z,10.84
2022-11-04T06:03:04.911Z,10.89
2022-11-04T06:04:04.875Z,10.87
2022-11-04T06:05:04.829Z,10.92
2022-11-04T06:06:04.826Z,10.86
2022-11-04T06:07:04.806Z,10.86
2022-11-04T06:08:04.797Z,10.79
2022-11-04T06:09:04.783Z,10.84
2022-11-04T06:10:04.796Z,10.82
2022-11-04T06:11:04.764Z,10.93
2022-11-04T06:12:04.754Z,10.96
2022-11-04T06:13:04.775Z,10.93
2022-11-04T06:14:04.739Z,10.93
2022-11-04T06:15:04.715Z,10.94
2022-11-04T06:16:04.726Z,10.97
2022-11-04T06:17:04.740Z,11.05
2022-11-04T06:18:04.686Z,10.94
2022-11-04T06:19:09.586Z,10.96
2022-11-04T06:20:05.664Z,10.81
2022-11-04T06:21:04.645Z,10.94
2022-11-04T06:22:04.676Z,10.92
2022-11-04T06:23:04.627Z,10.99
2022-11-04T06:24:04.636Z,11.04
2022-11-04T06:25:04.606Z,11.07
2022-11-04T06:26:04.595Z,11.10
2022-11-04T06:27:04.596Z,11.08
2022-11-04T06:28:04.574Z,11.08
2022-11-04T06:29:04.569Z,11.10
2022-11-04T06:30:04.547Z,11.17
2022-11-04T06:31:04.537Z,11.18
2022-11-04T06:32:04.525Z,11.18
2022-11-04T06:33:04.536Z,11.14
2022-11-04T06:34:04.518Z,11.10
2022-11-04T06:35:04.493Z,11.10
2022-11-04T06:36:04.484Z,11.08
2022-11-04T06:37:04.466Z,11.07
2022-11-04T06:38:04.466Z,11.10
2022-11-04T06:39:05.062Z,11.00
2022-11-04T06:40:04.489Z,10.89
2022-11-04T06:42:04.427Z,10.96
2022-11-04T06:43:04.632Z,10.96
2022-11-04T06:44:04.443Z,10.94
2022-11-04T06:45:04.430Z,10.90
2022-11-04T06:46:04.584Z,10.82
2022-11-04T06:47:04.370Z,10.94
2022-11-04T06:48:04.376Z,11.00
2022-11-04T06:49:04.333Z,11.05
2022-11-04T06:50:04.365Z,11.08
2022-11-04T06:51:04.335Z,11.02
2022-11-04T06:52:04.314Z,11.08
2022-11-04T06:53:04.299Z,10.94
2022-11-04T06:54:04.292Z,10.87
2022-11-04T06:55:04.344Z,10.90
2022-11-04T06:56:04.319Z,10.96
2022-11-04T06:57:04.397Z,11.00
2022-11-04T06:58:04.319Z,10.93
2022-11-04T06:59:04.243Z,10.96
2022-11-04T07:00:04.220Z,11.04
2022-11-04T07:01:09.234Z,11.17
2022-11-04T07:02:05.339Z,11.08
2022-11-04T07:03:04.186Z,11.11
2022-11-04T07:04:04.177Z,11.17
2022-11-04T07:05:04.167Z,11.22
2022-11-04T07:06:04.155Z,11.22
2022-11-04T07:07:04.148Z,11.19
2022-11-04T07:08:04.184Z,11.11
2022-11-04T07:09:04.136Z,11.17
2022-11-04T07:10:04.114Z,11.10
2022-11-04T07:11:04.119Z,11.12
2022-11-04T07:12:04.099Z,11.25
2022-11-04T07:13:04.064Z,11.26
2022-11-04T07:14:04.077Z,11.29
2022-11-04T07:15:04.043Z,11.33
2022-11-04T07:16:04.056Z,11.40
2022-11-04T07:17:04.015Z,11.40
2022-11-04T07:18:04.016Z,11.36
2022-11-04T07:19:04.013Z,11.35
2022-11-04T07:20:04.015Z,11.29
2022-11-04T07:21:07.181Z,11.40
2022-11-04T07:22:04.985Z,11.45
2022-11-04T07:23:03.970Z,11.36
2022-11-04T07:24:03.967Z,11.32
2022-11-04T07:25:03.938Z,11.35
2022-11-04T07:26:03.952Z,11.45
2022-11-04T07:27:03.957Z,11.52
2022-11-04T07:28:03.915Z,11.55
2022-11-04T07:29:03.914Z,11.52
2022-11-04T07:30:04.005Z,11.62
2022-11-04T07:31:03.914Z,11.69
2022-11-04T07:32:03.855Z,11.69
2022-11-04T07:33:03.843Z,11.69
2022-11-04T07:34:03.836Z,11.78
2022-11-04T07:35:03.835Z,11.72
2022-11-04T07:36:03.838Z,11.66
2022-11-04T07:37:03.825Z,11.68
2022-11-04T07:38:03.819Z,11.80
2022-11-04T07:39:03.780Z,11.78
2022-11-04T07:40:03.781Z,11.90
2022-11-04T07:41:03.744Z,12.02
2022-11-04T07:42:03.736Z,12.09
2022-11-04T07:43:03.749Z,12.06
2022-11-04T07:44:03.716Z,12.12
2022-11-04T07:45:03.714Z,12.22
2022-11-04T07:46:03.707Z,12.25
2022-11-04T07:47:03.684Z,12.28
2022-11-04T07:48:03.668Z,12.31
2022-11-04T07:49:03.674Z,12.37
2022-11-04T07:50:08.130Z,12.45
2022-11-04T07:51:04.656Z,12.47
2022-11-04T07:52:03.640Z,12.54
2022-11-04T07:53:03.607Z,12.57
2022-11-04T07:54:03.633Z,12.58
2022-11-04T07:55:03.626Z,12.57
2022-11-04T07:56:03.588Z,12.58
2022-11-04T07:57:03.563Z,12.60
2022-11-04T07:58:03.564Z,12.64
2022-11-04T07:59:03.575Z,12.73
2022-11-04T08:00:03.536Z,12.68
2022-11-04T08:01:03.568Z,12.61
2022-11-04T08:02:03.589Z,12.57
2022-11-04T08:03:03.596Z,12.55
2022-11-04T08:04:03.493Z,12.53
2022-11-04T08:05:03.464Z,12.46
2022-11-04T08:06:03.475Z,12.54
2022-11-04T08:07:03.475Z,12.68
2022-11-04T08:08:03.457Z,12.76
2022-11-04T08:09:03.491Z,12.78
2022-11-04T08:10:03.447Z,12.83
2022-11-04T08:11:03.404Z,12.80
2022-11-04T08:12:03.395Z,12.86
2022-11-04T08:13:03.397Z,12.90
2022-11-04T08:14:03.373Z,12.91
2022-11-04T08:15:03.366Z,12.98
2022-11-04T08:16:03.356Z,13.04
2022-11-04T08:17:03.334Z,13.01
2022-11-04T08:18:03.354Z,13.00
2022-11-04T08:19:03.336Z,13.03
2022-11-04T08:20:03.323Z,13.04
2022-11-04T08:21:03.285Z,13.03
2022-11-04T08:22:03.279Z,13.09
2022-11-04T08:23:03.266Z,13.11
2022-11-04T08:24:03.288Z,13.13
2022-11-04T08:25:03.276Z,13.18
2022-11-04T08:26:03.259Z,13.20
2022-11-04T08:27:03.225Z,13.18
2022-11-04T08:28:03.275Z,13.18
2022-11-04T08:29:03.194Z,13.12
2022-11-04T08:30:03.262Z,13.11
2022-11-04T08:31:03.183Z,13.11
2022-11-04T08:32:03.177Z,13.16
2022-11-04T08:33:03.145Z,13.20
2022-11-04T08:34:03.167Z,13.23
2022-11-04T08:35:03.164Z,13.28
2022-11-04T08:36:03.118Z,13.27
2022-11-04T08:37:03.111Z,13.31
2022-11-04T08:38:03.104Z,13.35
2022-11-04T08:39:08.994Z,13.35
2022-11-04T08:40:04.107Z,13.09
2022-11-04T08:41:03.093Z,12.86
2022-11-04T08:42:03.070Z,12.80
2022-11-04T08:43:03.048Z,12.85
2022-11-04T08:44:03.036Z,12.79
2022-11-04T08:45:03.015Z,12.76
2022-11-04T08:46:03.038Z,12.85
2022-11-04T08:47:02.997Z,12.90
2022-11-04T08:48:05.441Z,12.97
2022-11-04T08:49:07.046Z,12.90
2022-11-04T08:50:03.968Z,12.93
2022-11-04T08:51:03.029Z,13.00
2022-11-04T08:52:02.960Z,13.18
2022-11-04T08:53:02.924Z,13.18
2022-11-04T08:54:02.926Z,13.05
2022-11-04T08:55:02.908Z,13.03
2022-11-04T08:56:02.895Z,13.13
2022-11-04T08:57:02.890Z,13.04
2022-11-04T08:58:02.880Z,13.18
2022-11-04T08:59:02.856Z,13.20
2022-11-04T09:00:02.902Z,13.33
2022-11-04T09:01:02.859Z,13.25
2022-11-04T09:02:02.951Z,13.25
2022-11-04T09:03:02.810Z,13.30
2022-11-04T09:04:02.870Z,13.37
2022-11-04T09:05:02.797Z,13.47
2022-11-04T09:06:02.790Z,13.46
2022-11-04T09:07:07.872Z,13.52
2022-11-04T09:08:03.778Z,13.60
2022-11-04T09:09:02.761Z,13.62
2022-11-04T09:10:02.749Z,13.41
2022-11-04T09:11:02.716Z,13.30
2022-11-04T09:12:02.708Z,13.42
2022-11-04T09:13:02.712Z,13.67
2022-11-04T09:14:02.716Z,13.77
2022-11-04T09:15:02.678Z,13.87
2022-11-04T09:16:02.670Z,13.97
2022-11-04T09:17:02.675Z,14.00
2022-11-04T09:18:02.659Z,14.08
2022-11-04T09:19:02.628Z,13.95
2022-11-04T09:20:02.636Z,14.03
2022-11-04T09:21:02.637Z,13.99
2022-11-04T09:22:02.601Z,14.00
2022-11-04T09:23:02.594Z,13.89
2022-11-04T09:24:02.578Z,13.95
2022-11-04T09:25:02.558Z,13.89
2022-11-04T09:26:02.567Z,13.77
2022-11-04T09:27:02.549Z,13.70
2022-11-04T09:28:02.519Z,13.59
2022-11-04T09:29:02.523Z,13.78
2022-11-04T09:30:02.527Z,13.77
2022-11-04T09:31:02.498Z,13.81
2022-11-04T09:32:02.514Z,13.70
2022-11-04T09:33:02.479Z,13.72
2022-11-04T09:34:02.456Z,13.79
2022-11-04T09:35:02.446Z,13.72
2022-11-04T09:36:02.431Z,13.79
2022-11-04T09:37:02.420Z,13.90
2022-11-04T09:38:02.427Z,13.93
2022-11-04T09:39:02.404Z,13.89
2022-11-04T09:40:02.397Z,14.03
2022-11-04T09:41:02.394Z,13.89
2022-11-04T09:42:02.359Z,14.03
2022-11-04T09:43:02.378Z,14.20
2022-11-04T09:44:02.355Z,14.33
2022-11-04T09:45:21.580Z,14.33
2022-11-04T09:46:03.332Z,14.30
2022-11-04T09:47:02.326Z,14.32
2022-11-04T09:48:02.299Z,14.20
2022-11-04T09:49:02.300Z,14.29
2022-11-04T09:50:02.279Z,13.92
2022-11-04T09:51:02.309Z,13.81
2022-11-04T09:52:02.252Z,14.04
2022-11-04T09:53:02.266Z,13.99
2022-11-04T09:54:02.245Z,14.15
2022-11-04T09:55:02.274Z,14.33
2022-11-04T09:56:02.218Z,14.53
2022-11-04T09:57:02.198Z,14.72
2022-11-04T09:58:02.340Z,14.81
2022-11-04T09:59:02.171Z,14.63
2022-11-04T10:00:02.240Z,14.84
2022-11-04T10:01:02.188Z,15.04
2022-11-04T10:02:02.192Z,14.79
2022-11-04T10:03:02.119Z,14.58
2022-11-04T10:04:02.116Z,14.60
2022-11-04T10:05:02.099Z,14.73
2022-11-04T10:06:02.103Z,14.99
2022-11-04T10:07:02.077Z,15.09
2022-11-04T10:08:02.059Z,15.02
2022-11-04T10:09:02.048Z,14.73
2022-11-04T10:10:02.054Z,14.60
2022-11-04T10:11:02.068Z,14.36
2022-11-04T10:12:02.041Z,14.29
2022-11-04T10:13:02.024Z,14.40
2022-11-04T10:14:01.991Z,14.41
2022-11-04T10:15:01.982Z,14.43
2022-11-04T10:16:01.985Z,14.62
2022-11-04T10:17:01.990Z,14.58
2022-11-04T10:18:01.961Z,14.77
2022-11-04T10:19:02.041Z,14.96
2022-11-04T10:20:01.919Z,15.00
2022-11-04T10:21:01.924Z,15.02
2022-11-04T10:22:01.905Z,15.02
2022-11-04T10:23:01.917Z,15.07
2022-11-04T10:24:01.880Z,15.11
2022-11-04T10:25:01.871Z,15.07
2022-11-04T10:26:01.860Z,14.79
2022-11-04T10:27:01.850Z,14.58
2022-11-04T10:28:01.845Z,14.60
2022-11-04T10:29:01.883Z,14.60
2022-11-04T10:30:01.811Z,14.45
2022-11-04T10:31:01.800Z,14.41
2022-11-04T10:32:01.791Z,14.48
2022-11-04T10:33:01.781Z,14.45
2022-11-04T10:34:01.762Z,14.66
2022-11-04T10:35:01.793Z,14.66
2022-11-04T10:36:01.740Z,14.85
2022-11-04T10:37:01.730Z,14.68
2022-11-04T10:38:01.733Z,14.70
2022-11-04T10:39:01.720Z,14.82
2022-11-04T10:40:01.700Z,14.97
2022-11-04T10:41:07.071Z,15.18
2022-11-04T10:42:02.671Z,15.19
2022-11-04T10:43:01.662Z,15.21
2022-11-04T10:44:01.687Z,15.42
2022-11-04T10:45:01.640Z,15.46
2022-11-04T10:46:01.645Z,15.39
2022-11-04T10:47:01.632Z,15.31
2022-11-04T10:48:01.640Z,15.29
2022-11-04T10:49:01.593Z,15.22
2022-11-04T10:50:27.048Z,15.42
2022-11-04T10:51:02.593Z,15.58
2022-11-04T10:52:01.581Z,15.64
2022-11-04T10:53:01.578Z,15.72
2022-11-04T10:54:01.574Z,15.92
2022-11-04T10:55:01.550Z,16.12
2022-11-04T10:56:01.533Z,16.31
2022-11-04T10:57:01.545Z,16.29
2022-11-04T10:58:01.524Z,15.91
2022-11-04T10:59:01.482Z,15.73
2022-11-04T11:00:01.474Z,15.62
2022-11-04T11:01:01.524Z,15.77
2022-11-04T11:02:01.479Z,15.83
2022-11-04T11:03:01.433Z,15.80
2022-11-04T11:04:01.461Z,15.92
2022-11-04T11:05:01.412Z,15.86
2022-11-04T11:06:01.433Z,15.91
2022-11-04T11:07:01.395Z,15.73
2022-11-04T11:08:01.375Z,15.52
2022-11-04T11:09:01.363Z,15.64
2022-11-04T11:10:01.404Z,15.54
2022-11-04T11:11:01.359Z,15.59
2022-11-04T11:12:01.333Z,15.72
2022-11-04T11:13:01.333Z,15.64
2022-11-04T11:14:01.304Z,15.67
2022-11-04T11:15:01.294Z,15.65
2022-11-04T11:16:01.302Z,15.62
2022-11-04T11:17:01.298Z,15.58
2022-11-04T11:18:01.284Z,15.62
2022-11-04T11:19:01.260Z,15.31
2022-11-04T11:20:01.243Z,15.28
2022-11-04T11:21:01.257Z,15.29
2022-11-04T11:22:01.218Z,15.17
2022-11-04T11:23:05.470Z,15.37
2022-11-04T11:24:01.194Z,15.65
2022-11-04T11:25:01.183Z,15.86
2022-11-04T11:26:01.185Z,16.00
2022-11-04T11:27:01.183Z,16.04
2022-11-04T11:28:01.155Z,16.08
2022-11-04T11:29:01.169Z,16.26
2022-11-04T11:30:01.131Z,16.26
2022-11-04T11:31:01.115Z,16.28
2022-11-04T11:32:01.116Z,16.23
2022-11-04T11:33:01.124Z,16.39
2022-11-04T11:34:01.085Z,16.09
2022-11-04T11:35:01.092Z,16.02
2022-11-04T11:36:01.054Z,16.05
2022-11-04T11:37:01.052Z,16.28
2022-11-04T11:38:01.037Z,16.21
2022-11-04T11:39:01.037Z,16.32
2022-11-04T11:40:01.025Z,16.36
2022-11-04T11:41:23.952Z,16.39
2022-11-04T11:42:01.993Z,16.32
2022-11-04T11:43:00.995Z,16.43
2022-11-04T11:44:01.009Z,16.57
2022-11-04T11:45:00.958Z,16.72
2022-11-04T11:46:00.951Z,16.93
2022-11-04T11:47:00.934Z,16.74
2022-11-04T11:48:00.913Z,16.49
2022-11-04T11:49:00.911Z,16.42
2022-11-04T11:50:00.920Z,16.53
2022-11-04T11:51:00.885Z,16.69
2022-11-04T11:52:07.923Z,16.71
2022-11-04T11:53:00.862Z,16.76
2022-11-04T11:54:00.843Z,16.90
2022-11-04T11:55:00.863Z,17.06
2022-11-04T11:56:00.831Z,17.12
2022-11-04T11:57:13.643Z,17.19
2022-11-04T12:01:07.373Z,17.09
2022-11-04T12:02:01.897Z,17.19
2022-11-04T12:03:01.017Z,17.19
2022-11-04T12:06:17.935Z,16.69
2022-11-04T12:09:18.262Z,16.10
2022-11-04T12:10:01.671Z,16.31
2022-11-04T12:11:00.673Z,16.47
2022-11-04T12:12:00.637Z,16.42
2022-11-04T12:13:00.624Z,16.64
2022-11-04T12:14:00.624Z,16.47
2022-11-04T12:15:00.605Z,16.39
2022-11-04T12:16:00.594Z,16.32
2022-11-04T12:17:00.603Z,16.26
2022-11-04T12:18:00.564Z,16.09
2022-11-04T12:19:00.564Z,16.21
2022-11-04T12:20:00.543Z,16.08
2022-11-04T12:21:00.535Z,16.00
2022-11-04T12:22:00.522Z,16.15
2022-11-04T12:23:00.524Z,16.38
2022-11-04T12:24:00.497Z,16.50
2022-11-04T12:25:00.486Z,16.58
2022-11-04T12:26:00.478Z,16.46
2022-11-04T12:27:00.467Z,16.33
2022-11-04T12:28:00.473Z,16.35
2022-11-04T12:29:00.443Z,16.23
2022-11-04T12:30:00.434Z,16.09
2022-11-04T12:31:00.414Z,16.10
2022-11-04T12:32:00.404Z,16.13
2022-11-04T12:33:00.395Z,16.17
2022-11-04T12:34:00.395Z,16.21
2022-11-04T12:35:00.376Z,16.31
2022-11-04T12:36:00.355Z,16.35
2022-11-04T12:37:00.360Z,16.29
2022-11-04T12:38:00.335Z,16.31
2022-11-04T12:39:00.346Z,16.36
2022-11-04T12:40:00.314Z,16.32
2022-11-04T12:41:41.737Z,16.28
2022-11-04T12:42:19.991Z,16.15
2022-11-04T12:43:01.276Z,16.10
2022-11-04T12:44:00.267Z,16.13
2022-11-04T12:45:00.288Z,16.13
2022-11-04T12:46:00.246Z,16.15
2022-11-04T12:47:00.235Z,16.16
2022-11-04T12:48:00.225Z,16.12
2022-11-04T12:49:05.973Z,16.13
2022-11-04T12:50:01.216Z,16.26
2022-11-04T12:51:00.186Z,16.20
2022-11-04T12:52:00.178Z,16.20
2022-11-04T12:53:00.166Z,16.26
2022-11-04T12:54:00.154Z,16.21
2022-11-04T12:55:00.149Z,16.29
2022-11-04T12:56:00.158Z,16.29
2022-11-04T12:57:00.127Z,16.23
2022-11-04T12:58:00.108Z,16.32
2022-11-04T12:59:00.096Z,16.38
2022-11-04T13:00:00.095Z,16.41